CheckWX is a tool to help pilots better visualize weather data.  It is not intended as a substitute for an official pre-flight weather briefing.

08:34:15 UTC

EDHI TAF
Hamburg-Finkenwerder Airport
Hamburg, Germany
TAF EDHI 140546Z 1406/1415 VRB03KT CAVOK BECMG 1406/1408 15006KT PROB30 TEMPO 1406/1408 3500 BR BECMG 1411/1414 09007KT

Nov-14@
06:00 UTC

Nov-14 @ 06:00 UTC

Nov-14@
15:00 UTC

Nov-14 @ 15:00 UTC

TAF EDHI 140546Z 1406/1415 VRB03KT CAVOK
Wind
  • Variable at 3 KTS
Conditions
No significant weather
Cloud Levels
  • No significant clouds

Nov-14@
06:00 UTC

Nov-14 @ 06:00 UTC

Nov-14@
08:00 UTC

Nov-14 @ 08:00 UTC

PROB30 TEMPO 1406/1408 3500 BR

Expired

Conditions
Mist

Nov-14@
06:00 UTC

Nov-14 @ 06:00 UTC

Nov-14@
11:00 UTC

Nov-14 @ 11:00 UTC

BECMG 1406/1408 15006KT

Becoming

Becoming Conditions expected by Thu, Nov 14, 2019 @ 08:00 UTC

Wind
  • 150° at 6 KTS
Conditions
No significant weather
Cloud Levels
  • No significant clouds

Nov-14@
11:00 UTC

Nov-14 @ 11:00 UTC

Nov-14@
15:00 UTC

Nov-14 @ 15:00 UTC

BECMG 1411/1414 09007KT

Becoming

Becoming Conditions expected by Thu, Nov 14, 2019 @ 14:00 UTC

Wind
  • 090° at 7 KTS
Conditions
No significant weather
Cloud Levels
  • No significant clouds